Monroe Regional Airport
KMLU : rendu visible

Aérodrome :











RETROUVEZ-NOUS SUR...

 
LOGIN :

S'inscrire | Disclaimer

   EN    FR    IT 

 









Légende :    VFR   VFR Marginal   IFR   IFR Intensif   IFR Très Intensif
Visi : 
Plafond : 
>= 8 km
>= 3000ft
5 à 8 km
1000 à 3000 ft
1500m à 5 km
500 à 1000 ft
800 à 1500m
200 à 500 ft
< 800m
< 200 ft
Symboles :   Orages  Brouillard  Fortes neiges  Fortes précipitations  Vent > 20 kt






- Altitude de l'aérodrome : 79 ft
- Code IATA : MLU


KMLU - Monroe Regional

DERNIER METAR :
  • 091353Z 23004KT 10SM CLR 28/24 A3015 RMK AO2 SLP208 T02830244

METARs EXPIRÉS :
  • 091253Z 17003KT 7SM CLR 26/24 A3014 RMK AO2 SLP205 T02560239
  • 091153Z AUTO 16003KT 5SM BR CLR 24/23 A3013 RMK AO2 SLP200 T02390228 10256 20233 53011

TAF KMLU
Valide du 09 à 13h jusqu'au 10 à 12h UTC


091321Z 0913/1012 17003KT P6SM SKC
FM091500 22006KT P6SM FEW060
FM092100 19006KT P6SM SKC
FM100100 VRB03KT P6SM SKC
FIR KZFW / Amérique du Nord



MET'MAP, la Météo Aéronautique d'un coup d'oeil ! - Copyright ORBIFLY Décembre 2007 - Disclaimer

ORBIFLY MET'MAP TEAM :

Programmation & Développement : Alexandra Zaïnal
Sur une idée originale de : Baudouin d'Aumeries
Assistance à la programmation : Marc-Olivier Méhu
Soutien technique & logistique : Manuel Goepfert

Contact : metmap@orbifly.com




SOURCES & CREDITS :

   NOAA       Earth
Advisory